sensor_id;sensor_type;location;lat;lon;timestamp;temperature;humidity
44900;DHT22;30628;51.188;6.770;2023-08-08T00:01:01;17.90;99.90
44900;DHT22;30628;51.188;6.770;2023-08-08T00:03:26;17.90;99.90
44900;DHT22;30628;51.188;6.770;2023-08-08T00:05:52;18.00;99.90
44900;DHT22;30628;51.188;6.770;2023-08-08T00:08:18;18.00;99.90
44900;DHT22;30628;51.188;6.770;2023-08-08T00:10:43;18.00;99.90
44900;DHT22;30628;51.188;6.770;2023-08-08T00:13:09;17.90;99.90
44900;DHT22;30628;51.188;6.770;2023-08-08T00:15:35;17.90;99.90
44900;DHT22;30628;51.188;6.770;2023-08-08T00:18:09;17.80;99.90
44900;DHT22;30628;51.188;6.770;2023-08-08T00:20:35;17.80;99.90
44900;DHT22;30628;51.188;6.770;2023-08-08T00:23:00;17.90;99.90
44900;DHT22;30628;51.188;6.770;2023-08-08T00:25:26;17.90;99.90
44900;DHT22;30628;51.188;6.770;2023-08-08T00:27:51;17.90;99.90
44900;DHT22;30628;51.188;6.770;2023-08-08T00:30:17;17.80;99.90
44900;DHT22;30628;51.188;6.770;2023-08-08T00:32:43;17.80;99.90
44900;DHT22;30628;51.188;6.770;2023-08-08T00:35:09;17.80;99.90
44900;DHT22;30628;51.188;6.770;2023-08-08T00:37:34;17.80;99.90
44900;DHT22;30628;51.188;6.770;2023-08-08T00:40:00;17.80;99.90
44900;DHT22;30628;51.188;6.770;2023-08-08T00:42:26;17.70;99.90
44900;DHT22;30628;51.188;6.770;2023-08-08T00:44:51;17.60;99.90
44900;DHT22;30628;51.188;6.770;2023-08-08T00:47:17;17.70;99.90
44900;DHT22;30628;51.188;6.770;2023-08-08T00:49:43;17.60;99.90
44900;DHT22;30628;51.188;6.770;2023-08-08T00:52:12;17.60;99.90
44900;DHT22;30628;51.188;6.770;2023-08-08T00:54:37;17.50;99.90
44900;DHT22;30628;51.188;6.770;2023-08-08T00:57:03;17.30;99.90
44900;DHT22;30628;51.188;6.770;2023-08-08T00:59:29;17.20;99.90
44900;DHT22;30628;51.188;6.770;2023-08-08T01:01:56;17.30;99.90
44900;DHT22;30628;51.188;6.770;2023-08-08T01:04:24;17.00;99.90
44900;DHT22;30628;51.188;6.770;2023-08-08T01:07:01;17.00;99.90
44900;DHT22;30628;51.188;6.770;2023-08-08T01:09:55;17.20;99.90
44900;DHT22;30628;51.188;6.770;2023-08-08T01:12:23;17.20;99.90
44900;DHT22;30628;51.188;6.770;2023-08-08T01:14:50;17.20;99.90
44900;DHT22;30628;51.188;6.770;2023-08-08T01:17:16;17.20;99.90
44900;DHT22;30628;51.188;6.770;2023-08-08T01:19:43;17.10;99.90
44900;DHT22;30628;51.188;6.770;2023-08-08T01:22:16;17.10;99.90
44900;DHT22;30628;51.188;6.770;2023-08-08T01:24:46;17.10;99.90
44900;DHT22;30628;51.188;6.770;2023-08-08T01:27:12;17.10;99.90
44900;DHT22;30628;51.188;6.770;2023-08-08T01:29:38;17.10;99.90
44900;DHT22;30628;51.188;6.770;2023-08-08T01:32:04;17.10;99.90
44900;DHT22;30628;51.188;6.770;2023-08-08T01:34:30;16.90;99.90
44900;DHT22;30628;51.188;6.770;2023-08-08T01:36:59;16.90;99.90
44900;DHT22;30628;51.188;6.770;2023-08-08T01:39:44;16.80;99.90
44900;DHT22;30628;51.188;6.770;2023-08-08T01:42:11;16.70;99.90
44900;DHT22;30628;51.188;6.770;2023-08-08T01:44:39;16.50;99.90
44900;DHT22;30628;51.188;6.770;2023-08-08T01:47:06;16.60;99.90
44900;DHT22;30628;51.188;6.770;2023-08-08T01:49:32;16.60;99.90
44900;DHT22;30628;51.188;6.770;2023-08-08T01:51:58;16.50;99.90
44900;DHT22;30628;51.188;6.770;2023-08-08T01:54:23;16.60;99.90
44900;DHT22;30628;51.188;6.770;2023-08-08T01:56:49;16.60;99.90
44900;DHT22;30628;51.188;6.770;2023-08-08T01:59:14;16.60;99.90
44900;DHT22;30628;51.188;6.770;2023-08-08T02:01:40;16.40;99.90
44900;DHT22;30628;51.188;6.770;2023-08-08T02:04:05;16.50;99.90
44900;DHT22;30628;51.188;6.770;2023-08-08T02:06:31;16.50;99.90
44900;DHT22;30628;51.188;6.770;2023-08-08T02:08:57;16.50;99.90
44900;DHT22;30628;51.188;6.770;2023-08-08T02:11:23;16.60;99.90
44900;DHT22;30628;51.188;6.770;2023-08-08T02:13:49;16.40;99.90
44900;DHT22;30628;51.188;6.770;2023-08-08T02:16:14;16.40;99.90
44900;DHT22;30628;51.188;6.770;2023-08-08T02:18:40;16.30;99.90
44900;DHT22;30628;51.188;6.770;2023-08-08T02:21:09;16.40;99.90
44900;DHT22;30628;51.188;6.770;2023-08-08T02:23:35;16.40;99.90
44900;DHT22;30628;51.188;6.770;2023-08-08T02:26:00;16.40;99.90
44900;DHT22;30628;51.188;6.770;2023-08-08T02:28:26;16.30;99.90
44900;DHT22;30628;51.188;6.770;2023-08-08T02:30:52;16.20;99.90
44900;DHT22;30628;51.188;6.770;2023-08-08T02:33:18;16.10;99.90
44900;DHT22;30628;51.188;6.770;2023-08-08T02:35:44;16.20;99.90
44900;DHT22;30628;51.188;6.770;2023-08-08T02:38:10;16.00;99.90
44900;DHT22;30628;51.188;6.770;2023-08-08T02:40:36;16.00;99.90
44900;DHT22;30628;51.188;6.770;2023-08-08T02:43:01;15.90;99.90
44900;DHT22;30628;51.188;6.770;2023-08-08T02:45:27;15.90;99.90
44900;DHT22;30628;51.188;6.770;2023-08-08T02:47:53;15.80;99.90
44900;DHT22;30628;51.188;6.770;2023-08-08T02:50:18;16.00;99.90
44900;DHT22;30628;51.188;6.770;2023-08-08T02:52:44;16.10;99.90
44900;DHT22;30628;51.188;6.770;2023-08-08T02:55:10;16.00;99.90
44900;DHT22;30628;51.188;6.770;2023-08-08T02:57:36;16.10;99.90
44900;DHT22;30628;51.188;6.770;2023-08-08T03:00:01;16.00;99.90
44900;DHT22;30628;51.188;6.770;2023-08-08T03:02:29;15.90;99.90
44900;DHT22;30628;51.188;6.770;2023-08-08T03:04:54;16.00;99.90
44900;DHT22;30628;51.188;6.770;2023-08-08T03:07:20;15.80;99.90
44900;DHT22;30628;51.188;6.770;2023-08-08T03:09:46;15.90;99.90
44900;DHT22;30628;51.188;6.770;2023-08-08T03:12:11;16.00;99.90
44900;DHT22;30628;51.188;6.770;2023-08-08T03:14:37;16.00;99.90
44900;DHT22;30628;51.188;6.770;2023-08-08T03:17:03;16.00;99.90
44900;DHT22;30628;51.188;6.770;2023-08-08T03:19:28;15.80;99.90
44900;DHT22;30628;51.188;6.770;2023-08-08T03:21:54;15.90;99.90
44900;DHT22;30628;51.188;6.770;2023-08-08T03:24:19;15.90;99.90
44900;DHT22;30628;51.188;6.770;2023-08-08T03:26:45;15.80;99.90
44900;DHT22;30628;51.188;6.770;2023-08-08T03:29:11;15.80;99.90
44900;DHT22;30628;51.188;6.770;2023-08-08T03:31:38;15.90;99.90
44900;DHT22;30628;51.188;6.770;2023-08-08T03:34:03;15.80;99.90
44900;DHT22;30628;51.188;6.770;2023-08-08T03:36:30;15.80;99.90
44900;DHT22;30628;51.188;6.770;2023-08-08T03:38:55;15.70;99.90
44900;DHT22;30628;51.188;6.770;2023-08-08T03:41:21;15.70;99.90
44900;DHT22;30628;51.188;6.770;2023-08-08T03:43:46;15.80;99.90
44900;DHT22;30628;51.188;6.770;2023-08-08T03:46:16;15.80;99.90
44900;DHT22;30628;51.188;6.770;2023-08-08T03:48:41;15.80;99.90
44900;DHT22;30628;51.188;6.770;2023-08-08T03:51:07;15.90;99.90
44900;DHT22;30628;51.188;6.770;2023-08-08T03:53:33;15.80;99.90
44900;DHT22;30628;51.188;6.770;2023-08-08T03:55:58;15.60;99.90
44900;DHT22;30628;51.188;6.770;2023-08-08T03:58:24;15.70;99.90
44900;DHT22;30628;51.188;6.770;2023-08-08T04:00:50;15.70;99.90
44900;DHT22;30628;51.188;6.770;2023-08-08T04:03:16;15.60;99.90
44900;DHT22;30628;51.188;6.770;2023-08-08T04:05:45;15.60;99.90
44900;DHT22;30628;51.188;6.770;2023-08-08T04:08:15;15.50;99.90
44900;DHT22;30628;51.188;6.770;2023-08-08T04:10:41;15.60;99.90
44900;DHT22;30628;51.188;6.770;2023-08-08T04:13:07;15.60;99.90
44900;DHT22;30628;51.188;6.770;2023-08-08T04:15:32;15.70;99.90
44900;DHT22;30628;51.188;6.770;2023-08-08T04:17:58;15.80;99.90
44900;DHT22;30628;51.188;6.770;2023-08-08T04:20:23;15.70;99.90
44900;DHT22;30628;51.188;6.770;2023-08-08T04:22:49;15.80;99.90
44900;DHT22;30628;51.188;6.770;2023-08-08T04:25:15;15.70;99.90
44900;DHT22;30628;51.188;6.770;2023-08-08T04:27:41;15.80;99.90
44900;DHT22;30628;51.188;6.770;2023-08-08T04:30:07;15.70;99.90
44900;DHT22;30628;51.188;6.770;2023-08-08T04:32:32;15.80;99.90
44900;DHT22;30628;51.188;6.770;2023-08-08T04:34:58;15.80;99.90
44900;DHT22;30628;51.188;6.770;2023-08-08T04:37:24;15.80;99.90
44900;DHT22;30628;51.188;6.770;2023-08-08T04:39:49;15.80;99.90
44900;DHT22;30628;51.188;6.770;2023-08-08T04:42:15;15.80;99.90
44900;DHT22;30628;51.188;6.770;2023-08-08T04:44:40;15.80;99.90
44900;DHT22;30628;51.188;6.770;2023-08-08T04:47:06;15.90;99.90
44900;DHT22;30628;51.188;6.770;2023-08-08T04:49:32;16.00;99.90
44900;DHT22;30628;51.188;6.770;2023-08-08T04:51:57;16.00;99.90
44900;DHT22;30628;51.188;6.770;2023-08-08T04:54:23;16.10;99.90
44900;DHT22;30628;51.188;6.770;2023-08-08T04:56:49;16.10;99.90
44900;DHT22;30628;51.188;6.770;2023-08-08T04:59:14;16.10;99.90
44900;DHT22;30628;51.188;6.770;2023-08-08T05:01:40;16.00;99.90
44900;DHT22;30628;51.188;6.770;2023-08-08T05:04:07;16.00;99.90
44900;DHT22;30628;51.188;6.770;2023-08-08T05:06:32;16.10;99.90
44900;DHT22;30628;51.188;6.770;2023-08-08T05:08:58;16.10;99.90
44900;DHT22;30628;51.188;6.770;2023-08-08T05:11:24;16.10;99.90
44900;DHT22;30628;51.188;6.770;2023-08-08T05:13:49;16.10;99.90
44900;DHT22;30628;51.188;6.770;2023-08-08T05:16:15;16.20;99.90
44900;DHT22;30628;51.188;6.770;2023-08-08T05:18:41;16.10;99.90
44900;DHT22;30628;51.188;6.770;2023-08-08T05:21:09;16.10;99.90
44900;DHT22;30628;51.188;6.770;2023-08-08T05:23:35;16.20;99.90
44900;DHT22;30628;51.188;6.770;2023-08-08T05:26:00;16.10;99.90
44900;DHT22;30628;51.188;6.770;2023-08-08T05:28:26;16.20;99.90
44900;DHT22;30628;51.188;6.770;2023-08-08T05:30:52;16.20;99.90
44900;DHT22;30628;51.188;6.770;2023-08-08T05:33:33;16.30;99.90
44900;DHT22;30628;51.188;6.770;2023-08-08T05:35:58;16.20;99.90
44900;DHT22;30628;51.188;6.770;2023-08-08T05:38:24;16.20;99.90
44900;DHT22;30628;51.188;6.770;2023-08-08T05:40:50;16.30;99.90
44900;DHT22;30628;51.188;6.770;2023-08-08T05:43:16;16.20;99.90
44900;DHT22;30628;51.188;6.770;2023-08-08T05:45:44;16.20;99.90
44900;DHT22;30628;51.188;6.770;2023-08-08T05:48:10;16.20;99.90
44900;DHT22;30628;51.188;6.770;2023-08-08T05:50:38;16.10;99.90
44900;DHT22;30628;51.188;6.770;2023-08-08T05:53:04;16.10;99.90
44900;DHT22;30628;51.188;6.770;2023-08-08T05:55:29;16.10;99.90
44900;DHT22;30628;51.188;6.770;2023-08-08T05:57:55;16.10;99.90
44900;DHT22;30628;51.188;6.770;2023-08-08T06:00:21;16.00;99.90
44900;DHT22;30628;51.188;6.770;2023-08-08T06:02:46;16.00;99.90
44900;DHT22;30628;51.188;6.770;2023-08-08T06:05:12;16.20;99.90
44900;DHT22;30628;51.188;6.770;2023-08-08T06:07:38;16.20;99.90
44900;DHT22;30628;51.188;6.770;2023-08-08T06:10:05;16.10;99.90
44900;DHT22;30628;51.188;6.770;2023-08-08T06:12:31;16.10;99.90
44900;DHT22;30628;51.188;6.770;2023-08-08T06:14:56;16.10;99.90
44900;DHT22;30628;51.188;6.770;2023-08-08T06:17:22;16.10;99.90
44900;DHT22;30628;51.188;6.770;2023-08-08T06:19:49;16.00;99.90
44900;DHT22;30628;51.188;6.770;2023-08-08T06:22:15;16.10;99.90
44900;DHT22;30628;51.188;6.770;2023-08-08T06:24:41;16.10;99.90
44900;DHT22;30628;51.188;6.770;2023-08-08T06:27:07;16.20;99.90
44900;DHT22;30628;51.188;6.770;2023-08-08T06:29:32;16.20;99.90
44900;DHT22;30628;51.188;6.770;2023-08-08T06:31:58;16.20;99.90
44900;DHT22;30628;51.188;6.770;2023-08-08T06:34:23;16.20;99.90
44900;DHT22;30628;51.188;6.770;2023-08-08T06:36:49;16.30;99.90
44900;DHT22;30628;51.188;6.770;2023-08-08T06:39:15;16.30;99.90
44900;DHT22;30628;51.188;6.770;2023-08-08T06:41:41;16.30;99.90
44900;DHT22;30628;51.188;6.770;2023-08-08T06:44:07;16.30;99.90
44900;DHT22;30628;51.188;6.770;2023-08-08T06:46:33;16.30;99.90
44900;DHT22;30628;51.188;6.770;2023-08-08T06:48:59;16.30;99.90
44900;DHT22;30628;51.188;6.770;2023-08-08T06:51:26;16.30;99.90
44900;DHT22;30628;51.188;6.770;2023-08-08T06:53:52;16.30;99.90
44900;DHT22;30628;51.188;6.770;2023-08-08T06:56:18;16.30;99.90
44900;DHT22;30628;51.188;6.770;2023-08-08T06:58:43;16.30;99.90
44900;DHT22;30628;51.188;6.770;2023-08-08T07:01:09;16.30;99.90
44900;DHT22;30628;51.188;6.770;2023-08-08T07:03:35;16.30;99.90
44900;DHT22;30628;51.188;6.770;2023-08-08T07:06:02;16.40;99.90
44900;DHT22;30628;51.188;6.770;2023-08-08T07:08:28;16.40;99.90
44900;DHT22;30628;51.188;6.770;2023-08-08T07:10:56;16.40;99.90
44900;DHT22;30628;51.188;6.770;2023-08-08T07:13:22;16.40;99.90
44900;DHT22;30628;51.188;6.770;2023-08-08T07:15:47;16.50;99.90
44900;DHT22;30628;51.188;6.770;2023-08-08T07:18:13;16.50;99.90
44900;DHT22;30628;51.188;6.770;2023-08-08T07:20:38;16.50;99.90
44900;DHT22;30628;51.188;6.770;2023-08-08T07:23:04;16.60;99.90
44900;DHT22;30628;51.188;6.770;2023-08-08T07:25:30;16.60;99.90
44900;DHT22;30628;51.188;6.770;2023-08-08T07:27:56;16.70;99.90
44900;DHT22;30628;51.188;6.770;2023-08-08T07:30:21;16.70;99.90
44900;DHT22;30628;51.188;6.770;2023-08-08T07:32:47;16.80;99.90
44900;DHT22;30628;51.188;6.770;2023-08-08T07:35:12;17.00;99.90
44900;DHT22;30628;51.188;6.770;2023-08-08T07:37:38;17.10;99.90
44900;DHT22;30628;51.188;6.770;2023-08-08T07:40:14;17.20;99.90
44900;DHT22;30628;51.188;6.770;2023-08-08T07:42:39;17.20;99.90
44900;DHT22;30628;51.188;6.770;2023-08-08T07:45:05;17.20;99.90
44900;DHT22;30628;51.188;6.770;2023-08-08T07:47:31;17.20;99.90
44900;DHT22;30628;51.188;6.770;2023-08-08T07:49:57;17.30;99.90
44900;DHT22;30628;51.188;6.770;2023-08-08T07:52:22;17.30;99.90
44900;DHT22;30628;51.188;6.770;2023-08-08T07:54:49;17.30;99.90
44900;DHT22;30628;51.188;6.770;2023-08-08T07:57:14;17.30;99.90
44900;DHT22;30628;51.188;6.770;2023-08-08T07:59:40;17.30;99.90
44900;DHT22;30628;51.188;6.770;2023-08-08T08:02:05;17.30;99.90
44900;DHT22;30628;51.188;6.770;2023-08-08T08:04:33;17.30;99.90
44900;DHT22;30628;51.188;6.770;2023-08-08T08:06:58;17.40;99.90
44900;DHT22;30628;51.188;6.770;2023-08-08T08:09:24;17.50;99.90
44900;DHT22;30628;51.188;6.770;2023-08-08T08:11:50;17.50;99.90
44900;DHT22;30628;51.188;6.770;2023-08-08T08:14:15;17.50;99.90
44900;DHT22;30628;51.188;6.770;2023-08-08T08:16:41;17.50;99.90
44900;DHT22;30628;51.188;6.770;2023-08-08T08:19:07;17.50;99.90
44900;DHT22;30628;51.188;6.770;2023-08-08T08:21:32;17.50;99.90
44900;DHT22;30628;51.188;6.770;2023-08-08T08:23:58;17.30;99.90
44900;DHT22;30628;51.188;6.770;2023-08-08T08:26:23;17.50;99.90
44900;DHT22;30628;51.188;6.770;2023-08-08T08:28:49;17.60;99.90
44900;DHT22;30628;51.188;6.770;2023-08-08T08:31:15;17.60;99.90
44900;DHT22;30628;51.188;6.770;2023-08-08T08:33:40;17.70;99.90
44900;DHT22;30628;51.188;6.770;2023-08-08T08:36:06;17.70;99.90
44900;DHT22;30628;51.188;6.770;2023-08-08T08:38:32;17.70;99.90
44900;DHT22;30628;51.188;6.770;2023-08-08T08:40:58;17.60;99.90
44900;DHT22;30628;51.188;6.770;2023-08-08T08:43:24;17.70;99.90
44900;DHT22;30628;51.188;6.770;2023-08-08T08:45:52;17.60;99.90
44900;DHT22;30628;51.188;6.770;2023-08-08T08:48:18;17.60;99.90
44900;DHT22;30628;51.188;6.770;2023-08-08T08:50:47;17.70;99.90
44900;DHT22;30628;51.188;6.770;2023-08-08T08:53:13;17.70;99.90
44900;DHT22;30628;51.188;6.770;2023-08-08T08:55:41;17.70;99.90
44900;DHT22;30628;51.188;6.770;2023-08-08T08:58:07;17.60;99.90
44900;DHT22;30628;51.188;6.770;2023-08-08T09:00:33;17.50;99.90
44900;DHT22;30628;51.188;6.770;2023-08-08T09:02:59;17.50;99.90
44900;DHT22;30628;51.188;6.770;2023-08-08T09:05:26;17.50;99.90
44900;DHT22;30628;51.188;6.770;2023-08-08T09:07:51;17.50;99.90
44900;DHT22;30628;51.188;6.770;2023-08-08T09:10:18;17.50;99.90
44900;DHT22;30628;51.188;6.770;2023-08-08T09:12:44;17.50;99.90
44900;DHT22;30628;51.188;6.770;2023-08-08T09:15:11;17.50;99.90
44900;DHT22;30628;51.188;6.770;2023-08-08T09:17:41;17.20;99.90
44900;DHT22;30628;51.188;6.770;2023-08-08T09:20:08;17.50;99.90
44900;DHT22;30628;51.188;6.770;2023-08-08T09:22:36;17.60;99.90
44900;DHT22;30628;51.188;6.770;2023-08-08T09:25:03;17.70;99.90
44900;DHT22;30628;51.188;6.770;2023-08-08T09:27:29;17.70;99.90
44900;DHT22;30628;51.188;6.770;2023-08-08T09:29:55;17.80;99.90
44900;DHT22;30628;51.188;6.770;2023-08-08T09:32:20;18.00;99.90
44900;DHT22;30628;51.188;6.770;2023-08-08T09:34:46;18.00;99.90
44900;DHT22;30628;51.188;6.770;2023-08-08T09:37:12;18.00;99.90
44900;DHT22;30628;51.188;6.770;2023-08-08T09:39:38;18.10;99.90
44900;DHT22;30628;51.188;6.770;2023-08-08T09:42:06;18.20;99.90
44900;DHT22;30628;51.188;6.770;2023-08-08T09:44:33;18.50;99.90
44900;DHT22;30628;51.188;6.770;2023-08-08T09:47:00;18.60;99.90
44900;DHT22;30628;51.188;6.770;2023-08-08T09:49:27;18.70;99.90
44900;DHT22;30628;51.188;6.770;2023-08-08T09:51:53;18.80;99.90
44900;DHT22;30628;51.188;6.770;2023-08-08T09:54:19;18.90;99.90
44900;DHT22;30628;51.188;6.770;2023-08-08T09:56:46;19.00;99.90
44900;DHT22;30628;51.188;6.770;2023-08-08T09:59:12;19.00;99.90
44900;DHT22;30628;51.188;6.770;2023-08-08T10:01:40;18.90;99.90
44900;DHT22;30628;51.188;6.770;2023-08-08T10:04:08;18.90;99.90
44900;DHT22;30628;51.188;6.770;2023-08-08T10:06:33;18.90;99.90
44900;DHT22;30628;51.188;6.770;2023-08-08T10:09:01;18.80;99.90
44900;DHT22;30628;51.188;6.770;2023-08-08T10:11:30;18.70;99.90
44900;DHT22;30628;51.188;6.770;2023-08-08T10:13:57;18.60;99.90
44900;DHT22;30628;51.188;6.770;2023-08-08T10:16:23;18.60;99.90
44900;DHT22;30628;51.188;6.770;2023-08-08T10:18:58;18.50;99.90
44900;DHT22;30628;51.188;6.770;2023-08-08T10:21:37;18.40;99.90
44900;DHT22;30628;51.188;6.770;2023-08-08T10:24:10;18.30;99.90
44900;DHT22;30628;51.188;6.770;2023-08-08T10:26:57;18.20;99.90
44900;DHT22;30628;51.188;6.770;2023-08-08T10:29:25;18.20;99.90
44900;DHT22;30628;51.188;6.770;2023-08-08T10:34:27;18.10;99.90
44900;DHT22;30628;51.188;6.770;2023-08-08T10:36:52;18.00;99.90
44900;DHT22;30628;51.188;6.770;2023-08-08T10:39:19;18.00;99.90
44900;DHT22;30628;51.188;6.770;2023-08-08T10:41:50;18.00;99.90
44900;DHT22;30628;51.188;6.770;2023-08-08T10:44:25;18.00;99.90
44900;DHT22;30628;51.188;6.770;2023-08-08T10:46:52;18.00;99.90
44900;DHT22;30628;51.188;6.770;2023-08-08T10:49:19;18.00;99.90
44900;DHT22;30628;51.188;6.770;2023-08-08T10:51:46;18.00;99.90
44900;DHT22;30628;51.188;6.770;2023-08-08T10:54:25;18.10;99.90
44900;DHT22;30628;51.188;6.770;2023-08-08T10:56:59;18.20;99.90
44900;DHT22;30628;51.188;6.770;2023-08-08T10:59:36;18.40;99.90
44900;DHT22;30628;51.188;6.770;2023-08-08T11:02:03;18.60;99.90
44900;DHT22;30628;51.188;6.770;2023-08-08T11:04:29;18.70;99.90
44900;DHT22;30628;51.188;6.770;2023-08-08T11:06:56;18.80;99.90
44900;DHT22;30628;51.188;6.770;2023-08-08T11:09:22;18.80;99.90
44900;DHT22;30628;51.188;6.770;2023-08-08T11:11:48;18.80;99.90
44900;DHT22;30628;51.188;6.770;2023-08-08T11:14:16;18.80;99.90
44900;DHT22;30628;51.188;6.770;2023-08-08T11:16:43;18.80;99.90
44900;DHT22;30628;51.188;6.770;2023-08-08T11:19:10;18.90;99.90
44900;DHT22;30628;51.188;6.770;2023-08-08T11:21:44;18.90;99.90
44900;DHT22;30628;51.188;6.770;2023-08-08T11:24:11;19.00;99.90
44900;DHT22;30628;51.188;6.770;2023-08-08T11:26:40;19.10;99.90
44900;DHT22;30628;51.188;6.770;2023-08-08T11:29:07;19.10;99.90
44900;DHT22;30628;51.188;6.770;2023-08-08T11:31:37;19.10;99.90
44900;DHT22;30628;51.188;6.770;2023-08-08T11:34:03;19.10;99.90
44900;DHT22;30628;51.188;6.770;2023-08-08T11:36:31;19.00;99.90
44900;DHT22;30628;51.188;6.770;2023-08-08T11:39:00;18.90;99.90
44900;DHT22;30628;51.188;6.770;2023-08-08T11:41:26;18.80;99.90
44900;DHT22;30628;51.188;6.770;2023-08-08T11:43:52;18.70;99.90
44900;DHT22;30628;51.188;6.770;2023-08-08T11:46:22;18.70;99.90
44900;DHT22;30628;51.188;6.770;2023-08-08T11:49:05;18.70;99.90
44900;DHT22;30628;51.188;6.770;2023-08-08T11:51:32;18.70;99.90
44900;DHT22;30628;51.188;6.770;2023-08-08T11:53:59;18.70;99.90
44900;DHT22;30628;51.188;6.770;2023-08-08T11:56:28;18.70;99.90
44900;DHT22;30628;51.188;6.770;2023-08-08T11:58:55;18.80;99.90
44900;DHT22;30628;51.188;6.770;2023-08-08T12:01:22;18.70;99.90
44900;DHT22;30628;51.188;6.770;2023-08-08T12:03:48;18.50;99.90
44900;DHT22;30628;51.188;6.770;2023-08-08T12:06:17;18.50;99.90
44900;DHT22;30628;51.188;6.770;2023-08-08T12:08:44;18.50;99.90
44900;DHT22;30628;51.188;6.770;2023-08-08T12:11:14;18.40;99.90
44900;DHT22;30628;51.188;6.770;2023-08-08T12:13:44;18.30;99.90
44900;DHT22;30628;51.188;6.770;2023-08-08T12:16:11;18.30;99.90
44900;DHT22;30628;51.188;6.770;2023-08-08T12:18:45;18.10;99.90
44900;DHT22;30628;51.188;6.770;2023-08-08T12:21:13;18.00;99.90
44900;DHT22;30628;51.188;6.770;2023-08-08T12:23:39;17.90;99.90
44900;DHT22;30628;51.188;6.770;2023-08-08T12:26:05;17.80;99.90
44900;DHT22;30628;51.188;6.770;2023-08-08T12:28:31;17.90;99.90
44900;DHT22;30628;51.188;6.770;2023-08-08T12:30:57;18.00;99.90
44900;DHT22;30628;51.188;6.770;2023-08-08T12:33:23;18.00;99.90
44900;DHT22;30628;51.188;6.770;2023-08-08T12:35:48;18.00;99.90
44900;DHT22;30628;51.188;6.770;2023-08-08T12:38:14;18.00;99.90
44900;DHT22;30628;51.188;6.770;2023-08-08T12:40:40;18.10;99.90
44900;DHT22;30628;51.188;6.770;2023-08-08T12:43:06;18.20;99.90
44900;DHT22;30628;51.188;6.770;2023-08-08T12:45:31;18.30;99.90
44900;DHT22;30628;51.188;6.770;2023-08-08T12:47:57;18.40;99.90
44900;DHT22;30628;51.188;6.770;2023-08-08T12:50:22;18.50;99.90
44900;DHT22;30628;51.188;6.770;2023-08-08T12:52:49;18.50;99.90
44900;DHT22;30628;51.188;6.770;2023-08-08T12:55:15;18.50;99.90
44900;DHT22;30628;51.188;6.770;2023-08-08T12:57:43;18.60;99.90
44900;DHT22;30628;51.188;6.770;2023-08-08T13:00:09;18.60;99.90
44900;DHT22;30628;51.188;6.770;2023-08-08T13:02:35;18.70;99.90
44900;DHT22;30628;51.188;6.770;2023-08-08T13:05:00;18.60;99.90
44900;DHT22;30628;51.188;6.770;2023-08-08T13:07:28;18.60;99.90
44900;DHT22;30628;51.188;6.770;2023-08-08T13:09:54;18.60;99.90
44900;DHT22;30628;51.188;6.770;2023-08-08T13:12:19;18.70;99.90
44900;DHT22;30628;51.188;6.770;2023-08-08T13:14:46;18.70;99.90
44900;DHT22;30628;51.188;6.770;2023-08-08T13:17:12;18.80;99.90
44900;DHT22;30628;51.188;6.770;2023-08-08T13:19:37;18.90;99.90
44900;DHT22;30628;51.188;6.770;2023-08-08T13:22:03;19.00;99.90
44900;DHT22;30628;51.188;6.770;2023-08-08T13:24:29;19.00;99.90
44900;DHT22;30628;51.188;6.770;2023-08-08T13:26:54;19.00;99.90
44900;DHT22;30628;51.188;6.770;2023-08-08T13:29:20;19.00;99.90
44900;DHT22;30628;51.188;6.770;2023-08-08T13:31:46;19.00;99.90
44900;DHT22;30628;51.188;6.770;2023-08-08T13:34:11;19.10;99.90
44900;DHT22;30628;51.188;6.770;2023-08-08T13:36:37;19.10;99.90
44900;DHT22;30628;51.188;6.770;2023-08-08T13:39:03;19.00;99.90
44900;DHT22;30628;51.188;6.770;2023-08-08T13:41:29;19.00;99.90
44900;DHT22;30628;51.188;6.770;2023-08-08T13:43:55;18.90;99.90
44900;DHT22;30628;51.188;6.770;2023-08-08T13:46:21;18.90;99.90
44900;DHT22;30628;51.188;6.770;2023-08-08T13:48:46;18.90;99.90
44900;DHT22;30628;51.188;6.770;2023-08-08T13:51:12;19.00;99.90
44900;DHT22;30628;51.188;6.770;2023-08-08T13:53:38;19.10;99.90
44900;DHT22;30628;51.188;6.770;2023-08-08T13:56:04;19.20;99.90
44900;DHT22;30628;51.188;6.770;2023-08-08T13:58:33;19.30;99.90
44900;DHT22;30628;51.188;6.770;2023-08-08T14:00:59;19.50;99.90
44900;DHT22;30628;51.188;6.770;2023-08-08T14:03:25;19.60;99.90
44900;DHT22;30628;51.188;6.770;2023-08-08T14:05:51;19.50;99.90
44900;DHT22;30628;51.188;6.770;2023-08-08T14:08:19;19.40;99.90
44900;DHT22;30628;51.188;6.770;2023-08-08T14:10:45;19.50;99.90
44900;DHT22;30628;51.188;6.770;2023-08-08T14:13:11;19.50;99.90
44900;DHT22;30628;51.188;6.770;2023-08-08T14:15:37;19.70;99.90
44900;DHT22;30628;51.188;6.770;2023-08-08T14:18:03;19.70;99.90
44900;DHT22;30628;51.188;6.770;2023-08-08T14:20:29;19.70;99.90
44900;DHT22;30628;51.188;6.770;2023-08-08T14:22:55;19.90;99.90
44900;DHT22;30628;51.188;6.770;2023-08-08T14:25:21;20.10;99.90
44900;DHT22;30628;51.188;6.770;2023-08-08T14:27:46;20.10;99.90
44900;DHT22;30628;51.188;6.770;2023-08-08T14:30:12;20.00;99.90
44900;DHT22;30628;51.188;6.770;2023-08-08T14:32:38;20.00;99.90
44900;DHT22;30628;51.188;6.770;2023-08-08T14:35:03;20.10;99.90
44900;DHT22;30628;51.188;6.770;2023-08-08T14:37:30;20.10;99.90
44900;DHT22;30628;51.188;6.770;2023-08-08T14:39:56;20.10;99.90
44900;DHT22;30628;51.188;6.770;2023-08-08T14:42:22;20.00;99.90
44900;DHT22;30628;51.188;6.770;2023-08-08T14:44:47;20.00;99.90
44900;DHT22;30628;51.188;6.770;2023-08-08T14:47:13;20.00;99.90
44900;DHT22;30628;51.188;6.770;2023-08-08T14:49:38;20.00;99.90
44900;DHT22;30628;51.188;6.770;2023-08-08T14:52:04;20.20;99.90
44900;DHT22;30628;51.188;6.770;2023-08-08T14:54:29;20.10;99.90
44900;DHT22;30628;51.188;6.770;2023-08-08T14:56:55;20.20;99.90
44900;DHT22;30628;51.188;6.770;2023-08-08T14:59:21;20.20;99.90
44900;DHT22;30628;51.188;6.770;2023-08-08T15:01:46;20.20;99.90
44900;DHT22;30628;51.188;6.770;2023-08-08T15:04:12;20.10;99.90
44900;DHT22;30628;51.188;6.770;2023-08-08T15:06:37;20.10;99.90
44900;DHT22;30628;51.188;6.770;2023-08-08T15:09:04;20.10;99.90
44900;DHT22;30628;51.188;6.770;2023-08-08T15:11:30;20.20;99.90
44900;DHT22;30628;51.188;6.770;2023-08-08T15:13:55;20.30;99.90
44900;DHT22;30628;51.188;6.770;2023-08-08T15:16:21;20.30;99.90
44900;DHT22;30628;51.188;6.770;2023-08-08T15:18:46;20.20;99.90
44900;DHT22;30628;51.188;6.770;2023-08-08T15:21:12;20.10;99.90
44900;DHT22;30628;51.188;6.770;2023-08-08T15:23:39;20.00;99.90
44900;DHT22;30628;51.188;6.770;2023-08-08T15:26:15;20.00;99.90
44900;DHT22;30628;51.188;6.770;2023-08-08T15:28:48;20.00;99.90